createdAt,value
2023-05-22T00:01:11.277Z,60.32
2023-05-22T00:03:37.675Z,60.19
2023-05-22T00:06:04.119Z,60.06
2023-05-22T00:08:30.488Z,59.97
2023-05-22T00:10:56.864Z,59.66
2023-05-22T00:13:23.221Z,59.60
2023-05-22T00:15:49.609Z,59.45
2023-05-22T00:18:15.991Z,59.51
2023-05-22T00:20:42.338Z,60.23
2023-05-22T00:23:08.720Z,60.13
2023-05-22T00:25:35.070Z,60.23
2023-05-22T00:28:01.434Z,59.99
2023-05-22T00:30:27.818Z,59.86
2023-05-22T00:32:54.206Z,59.92
2023-05-22T00:35:20.574Z,59.97
2023-05-22T00:37:46.968Z,60.46
2023-05-22T00:40:13.351Z,61.41
2023-05-22T00:42:39.725Z,61.82
2023-05-22T00:45:06.080Z,61.97
2023-05-22T00:47:32.504Z,61.70
2023-05-22T00:49:58.901Z,61.40
2023-05-22T00:52:25.274Z,61.51
2023-05-22T00:54:51.632Z,61.29
2023-05-22T00:57:17.991Z,61.04
2023-05-22T00:59:44.361Z,61.05
2023-05-22T01:02:10.807Z,60.94
2023-05-22T01:04:37.189Z,60.39
2023-05-22T01:07:03.549Z,60.73
2023-05-22T01:09:30.015Z,60.55
2023-05-22T01:11:56.382Z,60.27
2023-05-22T01:14:22.757Z,59.87
2023-05-22T01:16:49.130Z,60.06
2023-05-22T01:19:15.617Z,59.69
2023-05-22T01:21:42.030Z,59.95
2023-05-22T01:24:08.426Z,59.90
2023-05-22T01:26:34.805Z,59.80
2023-05-22T01:29:01.185Z,59.81
2023-05-22T01:31:27.533Z,59.77
2023-05-22T01:33:53.995Z,60.34
2023-05-22T01:36:20.537Z,60.35
2023-05-22T01:38:46.906Z,60.04
2023-05-22T01:41:13.288Z,59.80
2023-05-22T01:43:39.641Z,59.60
2023-05-22T01:46:06.002Z,59.63
2023-05-22T01:48:32.386Z,60.14
2023-05-22T01:50:58.760Z,60.37
2023-05-22T01:53:25.122Z,60.12
2023-05-22T01:55:51.491Z,59.88
2023-05-22T01:58:17.885Z,60.20
2023-05-22T02:00:44.295Z,59.99
2023-05-22T02:03:10.912Z,59.99
2023-05-22T02:05:37.396Z,60.46
2023-05-22T02:08:03.786Z,60.08
2023-05-22T02:10:30.162Z,60.14
2023-05-22T02:12:56.516Z,59.92
2023-05-22T02:15:22.871Z,59.95
2023-05-22T02:17:49.328Z,60.27
2023-05-22T02:20:15.797Z,59.94
2023-05-22T02:22:42.170Z,60.22
2023-05-22T02:25:08.540Z,60.32
2023-05-22T02:27:34.904Z,60.65
2023-05-22T02:30:01.298Z,60.57
2023-05-22T02:32:27.666Z,60.62
2023-05-22T02:34:54.863Z,60.73
2023-05-22T02:37:21.300Z,61.05
2023-05-22T02:39:47.657Z,60.76
2023-05-22T02:42:14.028Z,60.85
2023-05-22T02:44:40.384Z,60.97
2023-05-22T02:47:06.764Z,60.94
2023-05-22T02:49:33.114Z,60.90
2023-05-22T02:51:59.472Z,60.68
2023-05-22T02:54:25.826Z,60.92
2023-05-22T02:56:52.185Z,60.83
2023-05-22T02:59:18.575Z,61.11
2023-05-22T03:01:44.949Z,61.38
2023-05-22T03:04:11.339Z,62.01
2023-05-22T03:06:37.766Z,61.42
2023-05-22T03:09:04.121Z,61.58
2023-05-22T03:11:30.491Z,61.26
2023-05-22T03:13:56.831Z,61.13
2023-05-22T03:16:23.379Z,61.31
2023-05-22T03:18:49.782Z,61.61
2023-05-22T03:21:16.142Z,61.88
2023-05-22T03:23:42.507Z,61.60
2023-05-22T03:26:08.905Z,61.15
2023-05-22T03:28:35.280Z,61.44
2023-05-22T03:31:01.650Z,62.41
2023-05-22T03:33:28.071Z,62.21
2023-05-22T03:35:54.495Z,62.39
2023-05-22T03:38:20.856Z,62.30
2023-05-22T03:40:47.224Z,62.16
2023-05-22T03:43:13.601Z,62.06
2023-05-22T03:45:40.005Z,62.50
2023-05-22T03:48:06.463Z,62.80
2023-05-22T03:50:32.904Z,62.32
2023-05-22T03:52:59.257Z,62.02
2023-05-22T03:55:25.593Z,62.60
2023-05-22T03:57:51.950Z,62.86
2023-05-22T04:00:18.302Z,62.59
2023-05-22T04:02:44.835Z,62.50
2023-05-22T04:05:11.501Z,62.28
2023-05-22T04:07:37.906Z,62.29
2023-05-22T04:10:04.277Z,62.51
2023-05-22T04:12:30.648Z,61.20
2023-05-22T04:14:56.997Z,61.58
2023-05-22T04:17:23.421Z,62.28
2023-05-22T04:19:49.839Z,62.70
2023-05-22T04:22:16.207Z,62.84
2023-05-22T04:24:42.557Z,63.21
2023-05-22T04:27:08.932Z,63.28
2023-05-22T04:29:35.346Z,63.46
2023-05-22T04:32:01.720Z,63.64
2023-05-22T04:34:28.090Z,63.31
2023-05-22T04:36:54.435Z,63.40
2023-05-22T04:39:20.801Z,63.45
2023-05-22T04:41:47.172Z,63.63
2023-05-22T04:44:13.517Z,63.57
2023-05-22T04:46:39.907Z,63.40
2023-05-22T04:49:06.355Z,64.00
2023-05-22T04:51:37.832Z,64.27
2023-05-22T04:54:04.351Z,64.16
2023-05-22T04:56:37.003Z,64.48
2023-05-22T04:59:03.786Z,63.83
2023-05-22T05:01:31.718Z,63.70
2023-05-22T05:03:59.548Z,64.08
2023-05-22T05:06:25.941Z,64.17
2023-05-22T05:08:52.336Z,64.38
2023-05-22T05:11:18.692Z,64.86
2023-05-22T05:13:45.049Z,64.88
2023-05-22T05:16:11.445Z,64.69
2023-05-22T05:18:37.934Z,64.41
2023-05-22T05:21:04.297Z,64.07
2023-05-22T05:23:30.655Z,64.50
2023-05-22T05:25:57.035Z,63.87
2023-05-22T05:28:23.460Z,64.29
2023-05-22T05:30:49.830Z,63.75
2023-05-22T05:33:16.267Z,64.00
2023-05-22T05:35:43.126Z,64.06
2023-05-22T05:38:09.660Z,64.32
2023-05-22T05:40:36.011Z,64.48
2023-05-22T05:43:02.384Z,64.75
2023-05-22T05:45:28.781Z,64.20
2023-05-22T05:47:55.194Z,64.08
2023-05-22T05:50:21.585Z,63.51
2023-05-22T05:52:47.990Z,61.98
2023-05-22T05:55:14.358Z,61.91
2023-05-22T05:57:40.724Z,61.94
2023-05-22T06:00:07.074Z,62.78
2023-05-22T06:02:33.550Z,62.37
2023-05-22T06:04:59.963Z,62.03
2023-05-22T06:07:26.328Z,61.78
2023-05-22T06:09:52.724Z,61.87
2023-05-22T06:12:19.084Z,61.39
2023-05-22T06:14:45.459Z,61.52
2023-05-22T06:17:11.887Z,60.30
2023-05-22T06:19:38.283Z,61.26
2023-05-22T06:22:05.813Z,60.73
2023-05-22T06:24:32.192Z,60.72
2023-05-22T06:26:58.559Z,59.54
2023-05-22T06:29:24.928Z,60.49
2023-05-22T06:31:51.363Z,60.47
2023-05-22T06:34:17.778Z,60.72
2023-05-22T06:36:44.170Z,59.82
2023-05-22T06:39:10.517Z,60.17
2023-05-22T06:41:37.938Z,59.89
2023-05-22T06:44:04.303Z,59.49
2023-05-22T06:46:30.804Z,60.31
2023-05-22T06:48:57.225Z,60.07
2023-05-22T06:51:23.620Z,60.75
2023-05-22T06:53:49.986Z,60.48
2023-05-22T06:56:16.344Z,60.19
2023-05-22T06:58:42.712Z,60.63
2023-05-22T07:01:09.086Z,60.17
2023-05-22T07:03:35.453Z,60.78
2023-05-22T07:06:01.865Z,61.51
2023-05-22T07:08:30.423Z,60.51
2023-05-22T07:10:57.164Z,60.09
2023-05-22T07:13:23.513Z,60.53
2023-05-22T07:15:49.872Z,59.83
2023-05-22T07:18:16.234Z,60.97
2023-05-22T07:20:42.780Z,60.95
2023-05-22T07:23:09.273Z,61.21
2023-05-22T07:25:35.630Z,61.08
2023-05-22T07:28:01.995Z,60.82
2023-05-22T07:30:28.362Z,61.03
2023-05-22T07:32:54.770Z,61.29
2023-05-22T07:35:21.177Z,61.17
2023-05-22T07:37:47.584Z,61.15
2023-05-22T07:40:13.934Z,60.05
2023-05-22T07:42:40.331Z,60.04
2023-05-22T07:45:06.709Z,59.80
2023-05-22T07:47:33.112Z,60.33
2023-05-22T07:49:59.496Z,60.24
2023-05-22T07:52:25.885Z,59.53
2023-05-22T07:54:52.239Z,59.65
2023-05-22T07:57:18.599Z,59.63
2023-05-22T07:59:44.971Z,59.36
2023-05-22T08:02:11.372Z,59.26
2023-05-22T08:04:37.872Z,58.86
2023-05-22T08:07:04.376Z,59.22
2023-05-22T08:09:30.757Z,58.42
2023-05-22T08:11:57.130Z,58.51
2023-05-22T08:14:23.510Z,58.00
2023-05-22T08:16:49.964Z,57.54
2023-05-22T08:19:16.620Z,57.41
2023-05-22T08:21:43.049Z,57.33
2023-05-22T08:24:09.400Z,56.74
2023-05-22T08:26:35.786Z,55.56
2023-05-22T08:29:02.156Z,55.58
2023-05-22T08:31:28.575Z,54.95
2023-05-22T08:33:54.945Z,55.40
2023-05-22T08:36:21.312Z,54.42
2023-05-22T08:38:47.682Z,53.76
2023-05-22T08:41:14.043Z,53.69
2023-05-22T08:43:40.394Z,52.35
2023-05-22T08:46:06.858Z,52.97
2023-05-22T08:48:33.247Z,52.58
2023-05-22T08:50:59.627Z,53.07
2023-05-22T08:53:26.189Z,53.11
2023-05-22T08:55:52.616Z,52.59
2023-05-22T08:58:19.028Z,50.77
2023-05-22T09:00:45.491Z,51.50
2023-05-22T09:03:11.997Z,51.64
2023-05-22T09:05:38.425Z,49.80
2023-05-22T09:08:15.955Z,48.60
2023-05-22T09:10:45.819Z,47.80
2023-05-22T09:13:12.170Z,48.87
2023-05-22T09:15:38.547Z,49.36
2023-05-22T09:18:05.005Z,48.40
2023-05-22T09:20:31.409Z,48.74
2023-05-22T09:22:57.761Z,49.48
2023-05-22T09:25:24.125Z,48.63
2023-05-22T09:27:50.576Z,48.18
2023-05-22T09:30:16.939Z,46.67
2023-05-22T09:32:43.348Z,46.09
2023-05-22T09:35:09.781Z,46.27
2023-05-22T09:37:36.156Z,43.41
2023-05-22T09:40:02.551Z,42.26
2023-05-22T09:42:28.911Z,42.30
2023-05-22T09:44:55.263Z,42.04
2023-05-22T09:47:21.620Z,40.83
2023-05-22T09:49:48.017Z,42.81
2023-05-22T09:52:14.375Z,43.84
2023-05-22T09:54:40.729Z,44.38
2023-05-22T09:57:07.123Z,42.86
2023-05-22T09:59:33.503Z,42.76
2023-05-22T10:01:59.917Z,41.92
2023-05-22T10:04:26.384Z,42.78
2023-05-22T10:06:52.761Z,43.34
2023-05-22T10:09:19.644Z,42.19
2023-05-22T10:11:46.192Z,41.15
2023-05-22T10:14:12.567Z,42.81
2023-05-22T10:16:39.047Z,43.46
2023-05-22T10:19:05.503Z,41.28
2023-05-22T10:21:31.887Z,43.42
2023-05-22T10:23:58.251Z,42.77
2023-05-22T10:26:24.626Z,43.96
2023-05-22T10:28:50.976Z,42.65
2023-05-22T10:31:17.988Z,41.61
2023-05-22T10:33:44.461Z,42.37
2023-05-22T10:36:10.831Z,41.29
2023-05-22T10:38:37.200Z,41.53
2023-05-22T10:41:03.585Z,40.36
2023-05-22T10:43:29.973Z,40.56
2023-05-22T10:45:56.346Z,41.17
2023-05-22T10:48:22.785Z,38.25
2023-05-22T10:50:49.273Z,39.17
2023-05-22T10:53:15.654Z,38.95
2023-05-22T10:55:42.032Z,38.59
2023-05-22T10:58:08.385Z,37.46
2023-05-22T11:00:34.745Z,34.60
2023-05-22T11:03:09.934Z,35.57
2023-05-22T11:05:43.320Z,37.85
2023-05-22T11:08:09.695Z,37.30
2023-05-22T11:10:36.064Z,37.14
2023-05-22T11:13:02.429Z,38.19
2023-05-22T11:15:28.793Z,38.28
2023-05-22T11:17:55.355Z,36.22
2023-05-22T11:20:21.801Z,34.82
2023-05-22T11:22:48.157Z,36.18
2023-05-22T11:25:14.558Z,36.32
2023-05-22T11:27:40.931Z,38.12
2023-05-22T11:30:07.305Z,38.65
2023-05-22T11:32:33.698Z,38.35
2023-05-22T11:35:00.069Z,39.25
2023-05-22T11:37:26.445Z,37.93
2023-05-22T11:39:52.820Z,39.18
2023-05-22T11:42:19.178Z,39.44
2023-05-22T11:44:45.528Z,38.96
2023-05-22T11:47:12.073Z,38.08
2023-05-22T11:49:38.456Z,38.07
2023-05-22T11:52:04.832Z,37.70
2023-05-22T11:54:31.201Z,38.18
2023-05-22T11:56:57.576Z,37.45
2023-05-22T11:59:23.966Z,37.99
2023-05-22T12:01:50.397Z,38.22
2023-05-22T12:04:16.874Z,38.68
2023-05-22T12:06:43.324Z,36.89
2023-05-22T12:09:09.852Z,37.93
2023-05-22T12:11:36.206Z,38.35
2023-05-22T12:14:02.595Z,37.39
2023-05-22T12:16:28.995Z,36.82
2023-05-22T12:18:55.438Z,35.14
2023-05-22T12:21:21.818Z,36.31
2023-05-22T12:23:48.182Z,35.92
2023-05-22T12:26:14.545Z,34.78
2023-05-22T12:28:40.898Z,36.40
2023-05-22T12:31:07.314Z,35.33
2023-05-22T12:33:33.714Z,36.56
2023-05-22T12:36:00.102Z,34.91
2023-05-22T12:38:26.473Z,35.07
2023-05-22T12:40:52.837Z,36.38
2023-05-22T12:43:19.207Z,36.05
2023-05-22T12:45:45.580Z,37.77
2023-05-22T12:48:12.012Z,38.32
2023-05-22T12:50:38.680Z,37.77
2023-05-22T12:53:05.266Z,37.34
2023-05-22T12:55:31.674Z,38.48
2023-05-22T12:57:58.054Z,38.23
2023-05-22T13:00:24.432Z,38.25
2023-05-22T13:02:50.873Z,38.13
2023-05-22T13:05:17.327Z,37.21
2023-05-22T13:07:43.821Z,37.35
2023-05-22T13:10:10.246Z,36.66
2023-05-22T13:12:36.621Z,36.96
2023-05-22T13:15:03.006Z,36.20
2023-05-22T13:17:29.388Z,34.42
2023-05-22T13:19:55.763Z,34.21
2023-05-22T13:22:22.117Z,33.58
2023-05-22T13:24:48.470Z,32.67
2023-05-22T13:27:14.855Z,34.30
2023-05-22T13:29:41.236Z,33.31
2023-05-22T13:32:07.587Z,32.89
2023-05-22T13:34:34.008Z,31.98
2023-05-22T13:37:00.569Z,32.01
2023-05-22T13:39:26.944Z,33.39
2023-05-22T13:41:53.324Z,32.08
2023-05-22T13:44:19.673Z,31.63
2023-05-22T13:46:46.119Z,29.79
2023-05-22T13:49:12.524Z,29.11
2023-05-22T13:51:38.904Z,28.78
2023-05-22T13:54:05.316Z,28.94
2023-05-22T13:56:31.711Z,28.93
2023-05-22T13:58:58.105Z,30.52
2023-05-22T14:01:24.509Z,30.34
2023-05-22T14:03:50.891Z,29.50
2023-05-22T14:06:17.257Z,29.54
2023-05-22T14:08:43.614Z,27.97
2023-05-22T14:11:09.971Z,28.23
2023-05-22T14:13:36.323Z,28.66
2023-05-22T14:16:02.685Z,29.39
2023-05-22T14:18:29.027Z,30.43
2023-05-22T14:20:55.387Z,30.88
2023-05-22T14:23:21.766Z,30.25
2023-05-22T14:25:48.134Z,30.91
2023-05-22T14:28:14.504Z,31.78
2023-05-22T14:30:40.915Z,32.93
2023-05-22T14:33:07.432Z,32.72
2023-05-22T14:35:33.815Z,33.82
2023-05-22T14:38:00.174Z,33.70
2023-05-22T14:40:26.538Z,33.85
2023-05-22T14:42:54.386Z,34.30
2023-05-22T14:45:20.993Z,33.86
2023-05-22T14:47:47.398Z,32.54
2023-05-22T14:50:22.489Z,32.96
2023-05-22T14:52:49.451Z,31.40
2023-05-22T14:55:16.067Z,30.59
2023-05-22T14:57:42.427Z,31.21
2023-05-22T15:00:08.794Z,31.36
2023-05-22T15:02:35.202Z,30.87
2023-05-22T15:05:01.650Z,30.75
2023-05-22T15:07:39.623Z,31.21
2023-05-22T15:10:10.012Z,31.62
2023-05-22T15:12:36.409Z,31.74
2023-05-22T15:15:02.764Z,32.33
2023-05-22T15:17:29.179Z,32.28
2023-05-22T15:19:55.562Z,32.94
2023-05-22T15:22:21.933Z,33.36
2023-05-22T15:24:48.312Z,33.33
2023-05-22T15:27:14.665Z,33.67
2023-05-22T15:29:41.039Z,33.90
2023-05-22T15:32:07.460Z,33.30
2023-05-22T15:34:35.303Z,32.80
2023-05-22T15:37:01.664Z,32.96
2023-05-22T15:39:28.022Z,32.72
2023-05-22T15:42:05.867Z,33.82
2023-05-22T15:44:33.272Z,35.11
2023-05-22T15:46:59.637Z,33.87
2023-05-22T15:49:27.404Z,33.36
2023-05-22T15:52:00.056Z,33.66
2023-05-22T15:54:26.442Z,33.69
2023-05-22T15:56:52.835Z,33.42
2023-05-22T15:59:19.209Z,33.30
2023-05-22T16:01:45.722Z,33.44
2023-05-22T16:04:12.188Z,33.71
2023-05-22T16:06:38.566Z,33.75
2023-05-22T16:09:04.936Z,33.71
2023-05-22T16:11:31.314Z,32.86
2023-05-22T16:13:57.679Z,32.82
2023-05-22T16:16:24.087Z,34.02
2023-05-22T16:18:50.488Z,33.59
2023-05-22T16:21:16.869Z,33.98
2023-05-22T16:23:43.285Z,34.70
2023-05-22T16:26:09.666Z,35.61
2023-05-22T16:28:36.027Z,35.58
2023-05-22T16:31:02.441Z,36.52
2023-05-22T16:33:28.856Z,36.59
2023-05-22T16:35:55.249Z,36.29
2023-05-22T16:38:21.630Z,36.76
2023-05-22T16:40:47.972Z,36.81
2023-05-22T16:43:14.350Z,36.66
2023-05-22T16:45:40.943Z,35.56
2023-05-22T16:48:07.650Z,35.88
2023-05-22T16:50:34.057Z,36.25
2023-05-22T16:53:00.429Z,36.56
2023-05-22T16:55:26.888Z,35.62
2023-05-22T16:57:53.265Z,34.58
2023-05-22T17:00:20.115Z,33.59
2023-05-22T17:02:46.688Z,32.91
2023-05-22T17:05:13.212Z,33.08
2023-05-22T17:07:39.605Z,32.45
2023-05-22T17:10:05.974Z,32.84
2023-05-22T17:12:32.354Z,32.94
2023-05-22T17:14:58.707Z,32.65
2023-05-22T17:17:25.151Z,32.81
2023-05-22T17:19:51.560Z,32.70
2023-05-22T17:22:17.939Z,33.19
2023-05-22T17:24:44.296Z,33.64
2023-05-22T17:27:11.103Z,33.82
2023-05-22T17:29:37.505Z,33.30
2023-05-22T17:32:03.889Z,32.74
2023-05-22T17:34:30.247Z,33.47
2023-05-22T17:36:56.617Z,33.85
2023-05-22T17:39:23.425Z,34.58
2023-05-22T17:41:49.841Z,34.06
2023-05-22T17:44:16.195Z,34.15
2023-05-22T17:46:42.591Z,35.17
2023-05-22T17:49:09.027Z,34.25
2023-05-22T17:51:35.402Z,35.34
2023-05-22T17:54:01.803Z,34.83
2023-05-22T17:56:28.173Z,34.67
2023-05-22T17:58:54.531Z,34.33
2023-05-22T18:01:20.959Z,34.54
2023-05-22T18:03:47.583Z,34.68
2023-05-22T18:06:14.150Z,35.22
2023-05-22T18:08:40.558Z,35.62
2023-05-22T18:11:06.937Z,35.90
2023-05-22T18:13:33.295Z,36.15
2023-05-22T18:15:59.710Z,36.36
2023-05-22T18:18:26.135Z,36.84
2023-05-22T18:20:52.487Z,36.55
2023-05-22T18:23:18.832Z,36.96
2023-05-22T18:25:45.215Z,37.36
2023-05-22T18:28:11.600Z,37.63
2023-05-22T18:30:38.052Z,37.95
2023-05-22T18:33:04.610Z,38.02
2023-05-22T18:35:31.031Z,38.59
2023-05-22T18:37:57.389Z,39.61
2023-05-22T18:40:23.758Z,40.50
2023-05-22T18:42:50.125Z,40.76
2023-05-22T18:45:16.490Z,41.21
2023-05-22T18:47:42.873Z,41.97
2023-05-22T18:50:09.295Z,41.63
2023-05-22T18:52:35.659Z,42.59
2023-05-22T18:55:02.021Z,42.90
2023-05-22T18:57:28.383Z,43.49
2023-05-22T18:59:54.755Z,43.34
2023-05-22T19:02:21.185Z,43.66
2023-05-22T19:04:47.654Z,44.00
2023-05-22T19:07:14.133Z,44.06
2023-05-22T19:09:40.473Z,43.92
2023-05-22T19:12:06.831Z,44.33
2023-05-22T19:14:33.216Z,45.02
2023-05-22T19:16:59.685Z,45.63
2023-05-22T19:19:26.237Z,45.81
2023-05-22T19:21:52.632Z,45.48
2023-05-22T19:24:18.997Z,45.55
2023-05-22T19:26:45.350Z,46.07
2023-05-22T19:29:11.692Z,45.92
2023-05-22T19:31:38.269Z,46.53
2023-05-22T19:34:04.681Z,46.24
2023-05-22T19:36:31.053Z,46.62
2023-05-22T19:38:57.440Z,46.81
2023-05-22T19:41:23.792Z,47.16
2023-05-22T19:43:50.146Z,47.66
2023-05-22T19:46:16.559Z,48.16
2023-05-22T19:48:42.963Z,48.43
2023-05-22T19:51:09.349Z,48.44
2023-05-22T19:53:35.708Z,49.48
2023-05-22T19:56:02.077Z,50.08
2023-05-22T19:58:28.429Z,50.76
2023-05-22T20:00:54.790Z,51.09
2023-05-22T20:03:21.259Z,50.33
2023-05-22T20:05:47.693Z,50.00
2023-05-22T20:08:14.061Z,50.20
2023-05-22T20:10:40.613Z,50.06
2023-05-22T20:13:07.152Z,49.89
2023-05-22T20:15:33.512Z,49.91
2023-05-22T20:17:59.959Z,49.98
2023-05-22T20:20:26.369Z,50.03
2023-05-22T20:22:52.804Z,50.40
2023-05-22T20:25:19.178Z,49.98
2023-05-22T20:27:45.550Z,50.29
2023-05-22T20:30:11.941Z,50.52
2023-05-22T20:32:38.300Z,51.51
2023-05-22T20:35:04.697Z,51.95
2023-05-22T20:37:31.068Z,52.23
2023-05-22T20:39:57.448Z,51.89
2023-05-22T20:42:23.828Z,52.07
2023-05-22T20:44:50.183Z,51.51
2023-05-22T20:47:16.530Z,51.41
2023-05-22T20:49:42.906Z,51.95
2023-05-22T20:52:09.254Z,52.20
2023-05-22T20:54:35.624Z,52.56
2023-05-22T20:57:02.042Z,52.58
2023-05-22T20:59:28.432Z,51.86
2023-05-22T21:01:54.806Z,51.89
2023-05-22T21:04:21.189Z,52.36
2023-05-22T21:06:47.600Z,52.15
2023-05-22T21:09:13.961Z,52.64
2023-05-22T21:11:40.341Z,52.55
2023-05-22T21:14:06.721Z,52.85
2023-05-22T21:16:33.115Z,51.97
2023-05-22T21:18:59.601Z,52.21
2023-05-22T21:21:25.989Z,52.51
2023-05-22T21:23:52.350Z,52.26
2023-05-22T21:26:18.700Z,52.63
2023-05-22T21:28:45.296Z,53.08
2023-05-22T21:31:11.689Z,52.51
2023-05-22T21:33:38.066Z,53.02
2023-05-22T21:36:04.686Z,53.60
2023-05-22T21:38:31.069Z,54.15
2023-05-22T21:40:57.430Z,54.75
2023-05-22T21:43:23.938Z,55.04
2023-05-22T21:45:50.339Z,55.17
2023-05-22T21:48:16.708Z,55.31
2023-05-22T21:50:43.093Z,55.82
2023-05-22T21:53:09.461Z,55.31
2023-05-22T21:55:35.833Z,54.57
2023-05-22T21:58:02.201Z,54.38
2023-05-22T22:00:28.628Z,53.78
2023-05-22T22:02:55.177Z,53.91
2023-05-22T22:05:21.613Z,54.04
2023-05-22T22:07:47.985Z,53.69
2023-05-22T22:10:14.358Z,53.61
2023-05-22T22:12:40.754Z,53.58
2023-05-22T22:15:07.130Z,53.22
2023-05-22T22:17:33.600Z,52.82
2023-05-22T22:20:00.013Z,53.17
2023-05-22T22:22:26.446Z,53.35
2023-05-22T22:24:52.813Z,53.76
2023-05-22T22:27:19.185Z,54.83
2023-05-22T22:29:45.586Z,55.14
2023-05-22T22:32:12.053Z,55.20
2023-05-22T22:34:38.549Z,55.53
2023-05-22T22:37:04.926Z,55.88
2023-05-22T22:39:31.282Z,55.33
2023-05-22T22:41:57.650Z,55.07
2023-05-22T22:44:24.051Z,55.42
2023-05-22T22:46:50.429Z,55.03
2023-05-22T22:49:16.802Z,55.14
2023-05-22T22:51:43.177Z,55.04
2023-05-22T22:54:09.549Z,55.42
2023-05-22T22:56:36.203Z,55.10
2023-05-22T22:59:02.625Z,55.34
2023-05-22T23:01:29.042Z,55.38
2023-05-22T23:03:55.500Z,55.81
2023-05-22T23:06:21.890Z,56.18
2023-05-22T23:08:48.255Z,56.05
2023-05-22T23:11:14.606Z,55.95
2023-05-22T23:13:41.233Z,56.03
2023-05-22T23:16:07.865Z,56.17
2023-05-22T23:18:34.240Z,56.55
2023-05-22T23:21:00.638Z,56.33
2023-05-22T23:23:27.006Z,56.41
2023-05-22T23:25:53.373Z,56.10
2023-05-22T23:28:19.749Z,55.56
2023-05-22T23:30:46.139Z,55.49
2023-05-22T23:33:12.500Z,55.87
2023-05-22T23:35:39.181Z,56.57
2023-05-22T23:38:05.874Z,56.24
2023-05-22T23:40:32.281Z,56.00
2023-05-22T23:42:58.643Z,55.59
2023-05-22T23:45:25.000Z,55.93
2023-05-22T23:47:51.436Z,55.82
2023-05-22T23:50:17.847Z,55.86
2023-05-22T23:52:44.220Z,56.80
2023-05-22T23:55:10.596Z,57.09
2023-05-22T23:57:36.950Z,57.12
